createdAt,value
2023-01-19T00:00:50.525Z,91.11
2023-01-19T00:03:18.409Z,90.61
2023-01-19T00:05:46.159Z,91.01
2023-01-19T00:08:15.059Z,91.33
2023-01-19T00:10:49.820Z,91.53
2023-01-19T00:13:17.554Z,92.21
2023-01-19T00:15:45.888Z,92.07
2023-01-19T00:18:13.557Z,92.79
2023-01-19T00:20:41.619Z,91.99
2023-01-19T00:23:09.766Z,91.99
2023-01-19T00:25:38.177Z,92.33
2023-01-19T00:28:06.031Z,91.82
2023-01-19T00:30:34.233Z,92.14
2023-01-19T00:33:02.224Z,92.76
2023-01-19T00:35:30.105Z,93.07
2023-01-19T00:37:58.781Z,92.81
2023-01-19T00:40:26.516Z,92.82
2023-01-19T00:42:54.472Z,92.40
2023-01-19T00:45:23.864Z,92.94
2023-01-19T00:47:52.220Z,92.16
2023-01-19T00:50:20.126Z,92.33
2023-01-19T00:52:47.981Z,92.19
2023-01-19T00:55:16.168Z,92.59
2023-01-19T00:57:43.758Z,92.63
2023-01-19T01:00:16.266Z,92.44
2023-01-19T01:02:44.663Z,91.95
2023-01-19T01:05:12.984Z,92.49
2023-01-19T01:07:41.735Z,91.81
2023-01-19T01:10:11.435Z,91.61
2023-01-19T01:12:39.639Z,92.25
2023-01-19T01:15:09.193Z,92.28
2023-01-19T01:17:37.397Z,92.21
2023-01-19T01:20:05.960Z,92.28
2023-01-19T01:22:33.568Z,91.83
2023-01-19T01:25:01.138Z,92.23
2023-01-19T01:27:29.061Z,91.74
2023-01-19T01:29:56.865Z,91.99
2023-01-19T01:32:24.532Z,91.54
2023-01-19T01:34:52.487Z,91.65
2023-01-19T01:37:20.203Z,91.21
2023-01-19T01:39:47.867Z,91.43
2023-01-19T01:42:18.352Z,90.97
2023-01-19T01:44:51.900Z,91.18
2023-01-19T01:47:36.837Z,91.24
2023-01-19T01:50:10.665Z,90.95
2023-01-19T01:53:06.989Z,91.34
2023-01-19T01:55:42.282Z,92.05
2023-01-19T01:58:10.768Z,91.88
2023-01-19T02:00:39.083Z,91.11
2023-01-19T02:03:07.414Z,91.63
2023-01-19T02:05:35.646Z,91.75
2023-01-19T02:08:13.225Z,92.03
2023-01-19T02:10:42.395Z,92.39
2023-01-19T02:13:10.325Z,92.08
2023-01-19T02:15:37.911Z,92.33
2023-01-19T02:18:06.126Z,92.25
2023-01-19T02:20:35.894Z,92.06
2023-01-19T02:23:07.948Z,92.40
2023-01-19T02:25:35.818Z,92.76
2023-01-19T02:28:03.500Z,92.31
2023-01-19T02:30:31.347Z,92.61
2023-01-19T02:32:59.641Z,91.96
2023-01-19T02:35:27.490Z,92.05
2023-01-19T02:37:55.872Z,92.52
2023-01-19T02:40:24.236Z,92.64
2023-01-19T02:42:53.166Z,92.65
2023-01-19T02:45:22.180Z,91.90
2023-01-19T02:47:51.972Z,92.36
2023-01-19T02:50:45.258Z,92.92
2023-01-19T02:53:24.634Z,93.06
2023-01-19T02:56:18.815Z,93.09
2023-01-19T02:59:14.418Z,93.14
2023-01-19T03:01:58.397Z,92.99
2023-01-19T03:04:41.567Z,93.02
2023-01-19T03:07:20.009Z,92.70
2023-01-19T03:10:14.129Z,93.08
2023-01-19T03:12:50.026Z,92.66
2023-01-19T03:15:29.508Z,92.91
2023-01-19T03:17:58.263Z,92.35
2023-01-19T03:20:26.910Z,92.69
2023-01-19T03:23:03.177Z,92.20
2023-01-19T03:25:35.368Z,92.74
2023-01-19T03:28:03.700Z,92.90
2023-01-19T03:30:38.450Z,93.09
2023-01-19T03:33:17.029Z,92.88
2023-01-19T03:35:48.908Z,93.09
2023-01-19T03:38:21.195Z,92.90
2023-01-19T03:40:49.839Z,93.53
2023-01-19T03:43:18.251Z,93.35
2023-01-19T03:45:46.100Z,93.03
2023-01-19T03:48:14.663Z,92.91
2023-01-19T03:50:42.479Z,92.96
2023-01-19T03:53:12.747Z,93.08
2023-01-19T03:55:42.638Z,93.70
2023-01-19T03:58:10.369Z,93.07
2023-01-19T04:00:38.311Z,92.83
2023-01-19T04:03:10.786Z,93.15
2023-01-19T04:05:38.575Z,93.36
2023-01-19T04:08:07.506Z,93.11
2023-01-19T04:10:35.315Z,93.28
2023-01-19T04:13:04.174Z,92.50
2023-01-19T04:15:32.415Z,93.04
2023-01-19T04:18:01.003Z,92.68
2023-01-19T04:20:29.129Z,92.52
2023-01-19T04:23:01.563Z,91.73
2023-01-19T04:25:29.539Z,92.88
2023-01-19T04:27:57.550Z,92.36
2023-01-19T04:30:26.022Z,92.62
2023-01-19T04:32:53.727Z,92.56
2023-01-19T04:35:21.635Z,92.65
2023-01-19T04:37:49.311Z,92.42
2023-01-19T04:40:17.036Z,92.24
2023-01-19T04:42:45.106Z,92.40
2023-01-19T04:45:13.693Z,92.29
2023-01-19T04:47:41.450Z,92.62
2023-01-19T04:50:11.059Z,93.03
2023-01-19T04:52:38.680Z,92.81
2023-01-19T04:55:07.113Z,92.27
2023-01-19T04:57:35.087Z,92.49
2023-01-19T05:00:04.715Z,92.64
2023-01-19T05:02:32.697Z,92.94
2023-01-19T05:05:01.007Z,92.61
2023-01-19T05:07:29.152Z,92.58
2023-01-19T05:09:56.835Z,92.05
2023-01-19T05:12:24.845Z,91.94
2023-01-19T05:14:52.507Z,91.82
2023-01-19T05:17:20.202Z,92.02
2023-01-19T05:19:48.113Z,92.10
2023-01-19T05:22:16.346Z,91.98
2023-01-19T05:24:44.001Z,92.02
2023-01-19T05:27:12.778Z,92.14
2023-01-19T05:29:40.721Z,92.23
2023-01-19T05:32:09.096Z,92.11
2023-01-19T05:34:36.973Z,92.39
2023-01-19T05:37:04.788Z,92.49
2023-01-19T05:39:32.490Z,92.20
2023-01-19T05:42:00.481Z,92.87
2023-01-19T05:44:28.053Z,93.26
2023-01-19T05:46:55.823Z,93.52
2023-01-19T05:49:23.848Z,93.25
2023-01-19T05:51:51.486Z,93.04
2023-01-19T05:54:19.385Z,92.89
2023-01-19T05:56:47.585Z,93.29
2023-01-19T05:59:15.179Z,93.39
2023-01-19T06:01:43.867Z,93.56
2023-01-19T06:04:12.087Z,92.49
2023-01-19T06:06:40.025Z,92.64
2023-01-19T06:09:08.206Z,92.91
2023-01-19T06:11:36.533Z,92.87
2023-01-19T06:14:04.410Z,92.99
2023-01-19T06:16:32.153Z,93.07
2023-01-19T06:19:01.739Z,93.08
2023-01-19T06:21:37.422Z,92.51
2023-01-19T06:24:09.962Z,93.02
2023-01-19T06:26:40.384Z,92.61
2023-01-19T06:29:09.605Z,92.47
2023-01-19T06:31:37.173Z,92.74
2023-01-19T06:34:05.155Z,92.48
2023-01-19T06:36:33.112Z,92.13
2023-01-19T06:39:03.536Z,92.83
2023-01-19T06:41:34.751Z,92.60
2023-01-19T06:44:03.282Z,93.03
2023-01-19T06:46:32.005Z,92.57
2023-01-19T06:48:59.640Z,92.67
2023-01-19T06:51:27.530Z,93.03
2023-01-19T06:53:55.174Z,92.75
2023-01-19T06:56:22.804Z,93.31
2023-01-19T06:58:51.635Z,92.41
2023-01-19T07:01:19.765Z,92.84
2023-01-19T07:03:47.528Z,92.70
2023-01-19T07:06:15.483Z,92.46
2023-01-19T07:08:43.072Z,92.74
2023-01-19T07:11:24.922Z,92.23
2023-01-19T07:13:58.866Z,91.99
2023-01-19T07:16:26.661Z,92.05
2023-01-19T07:18:54.372Z,92.21
2023-01-19T07:21:23.294Z,91.67
2023-01-19T07:23:52.075Z,91.77
2023-01-19T07:26:19.919Z,92.39
2023-01-19T07:28:48.434Z,92.46
2023-01-19T07:31:16.458Z,92.05
2023-01-19T07:33:44.866Z,92.20
2023-01-19T07:36:12.843Z,91.87
2023-01-19T07:38:40.552Z,91.81
2023-01-19T07:41:10.018Z,92.07
2023-01-19T07:43:38.090Z,91.63
2023-01-19T07:46:06.655Z,91.32
2023-01-19T07:48:34.603Z,91.12
2023-01-19T07:51:03.709Z,91.37
2023-01-19T07:53:31.814Z,91.25
2023-01-19T07:55:59.353Z,90.95
2023-01-19T07:58:27.570Z,91.24
2023-01-19T08:00:55.241Z,90.49
2023-01-19T08:03:23.204Z,90.35
2023-01-19T08:05:53.632Z,91.49
2023-01-19T08:08:21.493Z,91.29
2023-01-19T08:10:50.686Z,91.27
2023-01-19T08:13:18.725Z,91.65
2023-01-19T08:15:49.835Z,91.33
2023-01-19T08:18:17.855Z,90.58
2023-01-19T08:20:45.479Z,91.28
2023-01-19T08:23:13.219Z,91.05
2023-01-19T08:25:42.873Z,91.63
2023-01-19T08:28:14.801Z,90.96
2023-01-19T08:30:44.017Z,91.12
2023-01-19T08:33:12.720Z,90.56
2023-01-19T08:35:42.527Z,90.10
2023-01-19T08:38:10.808Z,89.96
2023-01-19T08:40:39.792Z,89.82
2023-01-19T08:43:10.686Z,89.75
2023-01-19T08:45:41.072Z,90.11
2023-01-19T08:48:08.709Z,89.87
2023-01-19T08:50:36.273Z,89.64
2023-01-19T08:53:04.253Z,89.23
2023-01-19T08:55:34.108Z,89.81
2023-01-19T08:58:02.577Z,89.08
2023-01-19T09:00:31.596Z,88.73
2023-01-19T09:03:00.995Z,88.67
2023-01-19T09:05:30.574Z,88.73
2023-01-19T09:07:58.798Z,88.47
2023-01-19T09:10:26.754Z,89.07
2023-01-19T09:12:54.411Z,89.58
2023-01-19T09:15:22.509Z,89.39
2023-01-19T09:17:52.300Z,89.46
2023-01-19T09:20:20.012Z,89.93
2023-01-19T09:22:48.042Z,90.48
2023-01-19T09:25:15.820Z,89.91
2023-01-19T09:27:43.849Z,89.78
2023-01-19T09:30:12.347Z,90.53
2023-01-19T09:32:40.669Z,90.29
2023-01-19T09:35:09.228Z,89.94
2023-01-19T09:37:37.339Z,90.24
2023-01-19T09:40:06.593Z,90.07
2023-01-19T09:42:43.791Z,90.16
2023-01-19T09:45:17.446Z,89.93
2023-01-19T09:47:45.865Z,89.71
2023-01-19T09:50:26.384Z,90.12
2023-01-19T09:53:01.046Z,90.11
2023-01-19T09:55:29.546Z,90.00
2023-01-19T09:57:57.229Z,89.72
2023-01-19T10:00:25.749Z,90.83
2023-01-19T10:02:59.701Z,89.65
2023-01-19T10:05:40.013Z,90.44
2023-01-19T10:08:14.672Z,90.15
2023-01-19T10:10:45.995Z,90.21
2023-01-19T10:13:40.751Z,89.20
2023-01-19T10:16:11.805Z,88.79
2023-01-19T10:18:47.941Z,88.85
2023-01-19T10:21:24.983Z,89.57
2023-01-19T10:23:57.235Z,89.76
2023-01-19T10:26:27.383Z,89.50
2023-01-19T10:28:59.137Z,89.51
2023-01-19T10:31:26.899Z,89.30
2023-01-19T10:33:54.862Z,89.16
2023-01-19T10:36:29.461Z,88.87
2023-01-19T10:38:58.051Z,89.02
2023-01-19T10:41:39.026Z,88.46
2023-01-19T10:44:07.334Z,88.39
2023-01-19T10:46:49.036Z,88.02
2023-01-19T10:49:27.480Z,88.93
2023-01-19T10:51:56.504Z,89.49
2023-01-19T10:54:26.095Z,88.59
2023-01-19T10:56:58.170Z,88.83
2023-01-19T10:59:34.164Z,88.17
2023-01-19T11:02:14.042Z,87.83
2023-01-19T11:04:42.200Z,87.95
2023-01-19T11:07:20.397Z,89.20
2023-01-19T11:09:49.891Z,88.43
2023-01-19T11:12:22.207Z,89.33
2023-01-19T11:14:51.256Z,89.16
2023-01-19T11:17:25.811Z,89.36
2023-01-19T11:19:59.762Z,88.49
2023-01-19T11:22:32.933Z,87.94
2023-01-19T11:25:02.340Z,87.88
2023-01-19T11:27:31.508Z,88.74
2023-01-19T11:30:05.029Z,88.26
2023-01-19T11:32:33.109Z,87.74
2023-01-19T11:35:00.811Z,87.92
2023-01-19T11:37:30.714Z,88.72
2023-01-19T11:39:59.614Z,88.52
2023-01-19T11:42:30.815Z,87.39
2023-01-19T11:45:01.693Z,88.49
2023-01-19T11:47:38.839Z,87.52
2023-01-19T11:50:14.772Z,87.39
2023-01-19T11:52:43.250Z,86.09
2023-01-19T11:55:33.874Z,86.49
2023-01-19T11:58:03.073Z,86.29
2023-01-19T12:00:46.884Z,87.05
2023-01-19T12:03:29.109Z,87.08
2023-01-19T12:06:07.540Z,87.95
2023-01-19T12:09:01.645Z,87.58
2023-01-19T12:11:37.479Z,87.32
2023-01-19T12:14:15.497Z,87.72
2023-01-19T12:16:43.821Z,87.71
2023-01-19T12:19:18.371Z,87.16
2023-01-19T12:21:46.667Z,86.92
2023-01-19T12:24:18.601Z,86.92
2023-01-19T12:27:13.129Z,86.65
2023-01-19T12:29:44.819Z,88.30
2023-01-19T12:32:14.945Z,87.79
2023-01-19T12:34:44.357Z,87.55
2023-01-19T12:37:27.180Z,88.06
2023-01-19T12:39:56.946Z,87.83
2023-01-19T12:42:26.985Z,88.41
2023-01-19T12:45:44.913Z,89.13
2023-01-19T12:48:24.769Z,89.48
2023-01-19T12:50:55.792Z,87.58
2023-01-19T12:53:23.671Z,87.71
2023-01-19T12:56:00.635Z,86.84
2023-01-19T12:58:28.900Z,88.26
2023-01-19T13:01:15.306Z,87.82
2023-01-19T13:04:02.214Z,87.11
2023-01-19T13:06:48.443Z,87.23
2023-01-19T13:09:39.198Z,87.06
2023-01-19T13:12:29.101Z,87.88
2023-01-19T13:15:48.054Z,87.04
2023-01-19T13:18:29.917Z,87.90
2023-01-19T13:21:08.744Z,88.52
2023-01-19T13:23:48.170Z,89.54
2023-01-19T13:26:18.197Z,88.01
2023-01-19T13:28:48.890Z,88.65
2023-01-19T13:31:18.169Z,87.53
2023-01-19T13:33:58.200Z,88.02
2023-01-19T13:36:34.167Z,88.01
2023-01-19T13:39:05.280Z,88.99
2023-01-19T13:41:35.754Z,88.18
2023-01-19T13:44:14.702Z,89.38
2023-01-19T13:46:43.354Z,90.24
2023-01-19T13:49:31.476Z,89.55
2023-01-19T13:52:26.123Z,90.07
2023-01-19T13:55:03.496Z,89.52
2023-01-19T13:57:44.660Z,89.64
2023-01-19T14:00:12.600Z,90.74
2023-01-19T14:02:52.248Z,89.80
2023-01-19T14:05:24.459Z,90.39
2023-01-19T14:08:10.542Z,90.71
2023-01-19T14:10:46.137Z,90.26
2023-01-19T14:13:17.049Z,90.01
2023-01-19T14:15:49.622Z,90.33
2023-01-19T14:18:17.570Z,90.99
2023-01-19T14:21:05.596Z,89.90
2023-01-19T14:23:36.321Z,89.62
2023-01-19T14:26:04.766Z,89.97
2023-01-19T14:28:32.359Z,90.18
2023-01-19T14:31:17.591Z,89.54
2023-01-19T14:33:46.886Z,89.79
2023-01-19T14:36:17.507Z,89.12
2023-01-19T14:38:47.431Z,89.27
2023-01-19T14:41:36.067Z,89.82
2023-01-19T14:44:09.346Z,89.17
2023-01-19T14:46:37.525Z,90.05
2023-01-19T14:49:06.521Z,89.12
2023-01-19T14:51:34.140Z,89.40
2023-01-19T14:54:02.256Z,89.13
2023-01-19T14:56:31.804Z,89.26
2023-01-19T14:59:01.478Z,89.58
2023-01-19T15:01:30.080Z,88.79
2023-01-19T15:03:58.235Z,89.76
2023-01-19T15:06:26.422Z,90.18
2023-01-19T15:08:54.641Z,89.81
2023-01-19T15:11:23.604Z,89.82
2023-01-19T15:13:51.495Z,90.15
2023-01-19T15:16:19.549Z,91.19
2023-01-19T15:18:47.484Z,90.69
2023-01-19T15:21:16.369Z,90.12
2023-01-19T15:23:47.529Z,90.32
2023-01-19T15:26:17.871Z,90.37
2023-01-19T15:28:46.324Z,90.11
2023-01-19T15:31:16.059Z,90.29
2023-01-19T15:33:44.153Z,88.96
2023-01-19T15:36:17.860Z,88.01
2023-01-19T15:38:46.792Z,88.49
2023-01-19T15:41:15.567Z,88.62
2023-01-19T15:43:43.267Z,87.66
2023-01-19T15:46:13.409Z,88.51
2023-01-19T15:48:41.920Z,88.66
2023-01-19T15:51:13.622Z,87.94
2023-01-19T15:53:41.697Z,87.61
2023-01-19T15:56:17.320Z,87.73
2023-01-19T15:58:46.124Z,89.27
2023-01-19T16:01:19.261Z,89.14
2023-01-19T16:03:47.543Z,89.89
2023-01-19T16:06:15.305Z,89.66
2023-01-19T16:08:43.015Z,90.40
2023-01-19T16:11:13.814Z,90.56
2023-01-19T16:13:45.278Z,89.34
2023-01-19T16:16:18.624Z,89.25
2023-01-19T16:18:46.700Z,89.68
2023-01-19T16:21:14.713Z,90.29
2023-01-19T16:23:45.039Z,90.25
2023-01-19T16:26:30.819Z,90.13
2023-01-19T16:29:04.089Z,88.87
2023-01-19T16:31:34.135Z,90.30
2023-01-19T16:34:02.412Z,91.11
2023-01-19T16:36:32.251Z,90.15
2023-01-19T16:39:01.594Z,89.98
2023-01-19T16:41:29.640Z,90.41
2023-01-19T16:43:57.895Z,89.35
2023-01-19T16:46:27.934Z,89.47
2023-01-19T16:49:01.498Z,89.75
2023-01-19T16:51:29.630Z,90.30
2023-01-19T16:53:57.680Z,90.23
2023-01-19T16:56:25.454Z,91.05
2023-01-19T16:58:57.360Z,90.33
2023-01-19T17:01:27.470Z,90.15
2023-01-19T17:03:55.689Z,90.64
2023-01-19T17:06:24.124Z,89.91
2023-01-19T17:08:52.900Z,90.49
2023-01-19T17:11:30.896Z,90.27
2023-01-19T17:14:01.822Z,90.24
2023-01-19T17:16:30.919Z,90.61
2023-01-19T17:19:04.698Z,90.18
2023-01-19T17:21:33.157Z,90.50
2023-01-19T17:24:01.064Z,89.71
2023-01-19T17:26:31.879Z,88.82
2023-01-19T17:29:00.844Z,89.87
2023-01-19T17:31:29.359Z,89.26
2023-01-19T17:33:57.704Z,89.38
2023-01-19T17:36:27.919Z,89.55
2023-01-19T17:38:58.096Z,88.61
2023-01-19T17:41:31.271Z,88.37
2023-01-19T17:43:59.999Z,88.54
2023-01-19T17:46:28.965Z,88.41
2023-01-19T17:49:05.031Z,88.23
2023-01-19T17:51:33.815Z,87.11
2023-01-19T17:54:01.874Z,87.22
2023-01-19T17:56:30.526Z,88.06
2023-01-19T17:58:59.270Z,87.81
2023-01-19T18:01:29.502Z,88.45
2023-01-19T18:03:58.309Z,89.36
2023-01-19T18:06:26.454Z,88.40
2023-01-19T18:08:56.588Z,87.67
2023-01-19T18:11:25.502Z,87.73
2023-01-19T18:13:53.952Z,87.68
2023-01-19T18:16:26.336Z,87.25
2023-01-19T18:18:55.162Z,86.44
2023-01-19T18:21:25.597Z,86.03
2023-01-19T18:23:59.490Z,85.90
2023-01-19T18:26:28.213Z,85.89
2023-01-19T18:28:57.285Z,86.63
2023-01-19T18:31:26.561Z,86.26
2023-01-19T18:33:55.157Z,85.89
2023-01-19T18:36:23.184Z,87.64
2023-01-19T18:38:51.357Z,86.50
2023-01-19T18:41:21.316Z,87.36
2023-01-19T18:43:49.825Z,87.62
2023-01-19T18:46:19.953Z,87.21
2023-01-19T18:48:48.236Z,88.04
2023-01-19T18:51:18.678Z,87.79
2023-01-19T18:53:46.645Z,88.61
2023-01-19T18:56:15.549Z,87.24
2023-01-19T18:58:43.722Z,88.35
2023-01-19T19:01:23.907Z,87.28
2023-01-19T19:03:53.765Z,87.62
2023-01-19T19:06:22.301Z,88.10
2023-01-19T19:08:51.267Z,87.93
2023-01-19T19:11:20.924Z,86.62
2023-01-19T19:13:57.315Z,87.40
2023-01-19T19:16:25.778Z,87.08
2023-01-19T19:18:53.733Z,87.04
2023-01-19T19:21:23.241Z,87.87
2023-01-19T19:23:53.728Z,87.56
2023-01-19T19:26:22.408Z,88.07
2023-01-19T19:28:50.423Z,88.10
2023-01-19T19:31:19.945Z,87.28
2023-01-19T19:33:48.684Z,88.02
2023-01-19T19:36:16.992Z,89.46
2023-01-19T19:38:45.340Z,88.15
2023-01-19T19:41:15.864Z,87.94
2023-01-19T19:43:44.086Z,87.01
2023-01-19T19:46:15.646Z,87.10
2023-01-19T19:48:43.518Z,87.12
2023-01-19T19:51:18.818Z,86.45
2023-01-19T19:53:50.159Z,87.49
2023-01-19T19:56:20.854Z,87.91
2023-01-19T19:58:50.596Z,88.14
2023-01-19T20:01:21.226Z,89.50
2023-01-19T20:03:49.807Z,88.20
2023-01-19T20:06:19.994Z,88.77
2023-01-19T20:08:49.122Z,88.02
2023-01-19T20:11:25.620Z,87.48
2023-01-19T20:13:54.056Z,88.05
2023-01-19T20:16:23.335Z,88.09
2023-01-19T20:18:53.242Z,86.90
2023-01-19T20:21:33.630Z,87.78
2023-01-19T20:24:06.527Z,89.13
2023-01-19T20:26:37.522Z,88.15
2023-01-19T20:29:06.091Z,87.85
2023-01-19T20:31:36.979Z,88.62
2023-01-19T20:34:08.147Z,88.10
2023-01-19T20:36:36.092Z,87.60
2023-01-19T20:39:04.435Z,88.64
2023-01-19T20:41:32.694Z,88.83
2023-01-19T20:44:00.339Z,87.99
2023-01-19T20:46:28.316Z,86.86
2023-01-19T20:48:56.460Z,87.39
2023-01-19T20:51:24.334Z,87.12
2023-01-19T20:53:52.393Z,87.44
2023-01-19T20:56:20.493Z,86.99
2023-01-19T20:58:48.425Z,85.99
2023-01-19T21:01:17.971Z,86.11
2023-01-19T21:03:48.051Z,86.08
2023-01-19T21:06:16.608Z,85.94
2023-01-19T21:08:44.630Z,85.51
2023-01-19T21:11:14.647Z,85.76
2023-01-19T21:13:42.217Z,85.83
2023-01-19T21:16:10.452Z,85.03
2023-01-19T21:18:39.416Z,85.32
2023-01-19T21:21:12.671Z,84.99
2023-01-19T21:23:46.360Z,85.06
2023-01-19T21:26:14.737Z,85.17
2023-01-19T21:28:43.154Z,84.45
2023-01-19T21:31:13.525Z,85.29
2023-01-19T21:33:42.482Z,86.05
2023-01-19T21:36:10.702Z,86.37
2023-01-19T21:38:39.328Z,85.44
2023-01-19T21:41:09.291Z,85.94
2023-01-19T21:43:38.340Z,86.53
2023-01-19T21:46:13.020Z,85.21
2023-01-19T21:48:41.722Z,83.51
2023-01-19T21:51:10.051Z,83.63
2023-01-19T21:53:37.853Z,84.46
2023-01-19T21:56:07.100Z,84.90
2023-01-19T21:58:35.378Z,84.53
2023-01-19T22:01:06.241Z,84.95
2023-01-19T22:03:34.427Z,84.99
2023-01-19T22:06:06.803Z,84.79
2023-01-19T22:08:35.184Z,83.79
2023-01-19T22:11:09.534Z,83.04
2023-01-19T22:13:38.088Z,82.95
2023-01-19T22:16:08.291Z,84.73
2023-01-19T22:18:40.789Z,83.99
2023-01-19T22:21:33.520Z,84.44
2023-01-19T22:24:02.633Z,84.02
2023-01-19T22:26:31.885Z,83.01
2023-01-19T22:29:01.801Z,83.41
2023-01-19T22:31:30.826Z,83.49
2023-01-19T22:33:58.862Z,83.10
2023-01-19T22:36:26.643Z,84.40
2023-01-19T22:39:04.142Z,85.15
2023-01-19T22:41:37.045Z,83.84
2023-01-19T22:44:07.852Z,84.07
2023-01-19T22:46:37.015Z,84.06
2023-01-19T22:49:06.553Z,84.49
2023-01-19T22:51:34.935Z,84.04
2023-01-19T22:54:02.686Z,84.18
2023-01-19T22:56:33.631Z,84.15
2023-01-19T22:59:01.379Z,84.80
2023-01-19T23:01:30.482Z,85.21
2023-01-19T23:03:59.247Z,85.40
2023-01-19T23:06:29.394Z,84.80
2023-01-19T23:08:59.523Z,84.79
2023-01-19T23:11:30.238Z,84.34
2023-01-19T23:13:58.401Z,83.66
2023-01-19T23:16:26.301Z,83.76
2023-01-19T23:18:55.917Z,83.65
2023-01-19T23:21:26.282Z,83.81
2023-01-19T23:23:59.284Z,82.90
2023-01-19T23:26:28.376Z,82.87
2023-01-19T23:29:01.448Z,83.45
2023-01-19T23:31:31.715Z,83.46
2023-01-19T23:34:01.995Z,83.62
2023-01-19T23:36:31.979Z,83.88
2023-01-19T23:39:02.397Z,83.45
2023-01-19T23:41:31.763Z,83.59
2023-01-19T23:43:59.499Z,83.71
2023-01-19T23:46:27.820Z,83.34
2023-01-19T23:48:56.032Z,82.56
2023-01-19T23:51:25.671Z,83.38
2023-01-19T23:53:54.153Z,83.81
2023-01-19T23:56:25.130Z,83.74
2023-01-19T23:59:02.691Z,83.26
